Time;durP1;ratioP1;P1;durP2;ratioP2;P2;SDS_P1;SDS_P2;PMS_P1;PMS_P2;Temp;Humidity;BMP_temperature;BMP_pressure;BME280_temperature;BME280_humidity;BME280_pressure;Samples;Min_cycle;Max_cycle;Signal;HPM_P1;HPM_P2
2021/03/23 00:00:34;;;;;;;5.65;2.22;;;3.60;61.50;;;;;;5096711;28;20028;-73
2021/03/23 00:03:08;;;;;;;3.58;1.95;;;3.60;61.80;;;;;;5083099;28;20076;-73
2021/03/23 00:05:34;;;;;;;4.57;2.10;;;3.50;61.60;;;;;;5097017;28;20031;-73
2021/03/23 00:08:00;;;;;;;4.30;1.45;;;3.60;61.80;;;;;;5097212;28;20117;-73
2021/03/23 00:10:28;;;;;;;5.72;1.90;;;3.60;61.80;;;;;;5078798;28;20052;-73
2021/03/23 00:12:55;;;;;;;3.15;1.73;;;3.60;61.90;;;;;;5096671;28;20419;-74
2021/03/23 00:15:21;;;;;;;4.93;1.58;;;3.70;62.10;;;;;;5096818;28;20024;-73
2021/03/23 00:17:48;;;;;;;3.85;2.00;;;3.60;62.50;;;;;;5096895;28;20137;-73
2021/03/23 00:20:18;;;;;;;5.35;1.90;;;3.60;62.80;;;;;;5096466;28;20039;-73
2021/03/23 00:22:44;;;;;;;2.80;1.85;;;3.60;63.10;;;;;;5096813;28;20028;-73
2021/03/23 00:25:11;;;;;;;3.33;1.80;;;3.60;63.40;;;;;;5096277;28;20056;-73
2021/03/23 00:27:37;;;;;;;6.78;2.67;;;3.60;63.80;;;;;;5096575;28;20040;-73
2021/03/23 00:30:09;;;;;;;4.72;2.03;;;3.60;63.80;;;;;;5096522;28;20442;-73
2021/03/23 00:32:34;;;;;;;4.32;2.38;;;3.70;63.90;;;;;;5096663;28;20020;-73
2021/03/23 00:35:00;;;;;;;4.43;2.67;;;3.70;64.00;;;;;;5096426;28;20368;-73
2021/03/23 00:37:26;;;;;;;4.35;2.05;;;3.70;64.50;;;;;;5096766;28;20095;-73
2021/03/23 00:39:51;;;;;;;4.63;1.90;;;3.70;64.50;;;;;;5096369;28;20020;-73
2021/03/23 00:42:17;;;;;;;5.53;1.77;;;3.70;64.20;;;;;;5078419;28;20028;-73
2021/03/23 00:44:44;;;;;;;4.45;2.47;;;3.80;63.80;;;;;;5078335;28;20070;-73
2021/03/23 00:47:10;;;;;;;4.70;1.83;;;3.80;63.60;;;;;;5098260;28;20028;-73
2021/03/23 00:49:36;;;;;;;5.07;2.05;;;4.00;63.30;;;;;;5100152;28;20020;-73
2021/03/23 00:52:02;;;;;;;5.35;2.38;;;4.00;63.30;;;;;;5099962;28;20046;-73
2021/03/23 00:54:27;;;;;;;4.15;2.25;;;3.90;63.60;;;;;;5099999;28;20039;-73
2021/03/23 00:56:53;;;;;;;4.60;2.10;;;3.90;63.90;;;;;;5099973;28;20027;-73
2021/03/23 00:59:19;;;;;;;7.05;2.67;;;3.80;64.40;;;;;;5099932;28;20019;-73
2021/03/23 01:01:44;;;;;;;2.90;2.08;;;3.70;64.70;;;;;;5099768;28;20034;-73
2021/03/23 01:04:10;;;;;;;6.65;2.63;;;3.60;65.10;;;;;;5099752;28;20028;-73
2021/03/23 01:06:36;;;;;;;4.95;2.15;;;3.70;65.20;;;;;;5099811;28;20020;-73
2021/03/23 01:09:02;;;;;;;5.55;2.53;;;3.60;65.30;;;;;;5099869;28;20044;-73
2021/03/23 01:11:27;;;;;;;6.40;2.70;;;3.50;65.70;;;;;;5099733;28;20020;-73
2021/03/23 01:13:53;;;;;;;4.50;2.10;;;3.40;66.20;;;;;;5099592;28;20024;-73
2021/03/23 01:16:19;;;;;;;7.32;2.40;;;3.40;66.30;;;;;;5099618;28;20438;-73
2021/03/23 01:18:44;;;;;;;6.63;3.05;;;3.40;66.60;;;;;;5099866;28;20039;-73
2021/03/23 01:21:10;;;;;;;4.32;2.47;;;3.40;66.80;;;;;;5099454;28;20035;-73
2021/03/23 01:23:36;;;;;;;4.72;2.45;;;3.30;67.20;;;;;;5099710;28;20110;-73
2021/03/23 01:26:01;;;;;;;4.25;2.58;;;3.30;67.40;;;;;;5099192;28;20044;-73
2021/03/23 01:28:27;;;;;;;6.00;2.72;;;3.30;67.50;;;;;;5099408;28;20035;-73
2021/03/23 01:30:53;;;;;;;3.50;2.30;;;3.30;67.70;;;;;;5099583;28;20040;-73
2021/03/23 01:33:18;;;;;;;3.67;2.53;;;3.30;67.60;;;;;;5099305;28;20027;-73
2021/03/23 01:35:44;;;;;;;4.10;2.60;;;3.30;67.70;;;;;;5099259;28;20107;-73
2021/03/23 01:38:10;;;;;;;5.60;2.67;;;3.30;67.80;;;;;;5099646;28;20079;-73
2021/03/23 01:40:37;;;;;;;5.93;3.08;;;3.30;68.10;;;;;;5099382;28;20048;-73
2021/03/23 01:43:06;;;;;;;4.38;2.83;;;3.30;68.30;;;;;;5098988;28;20058;-73
2021/03/23 01:45:31;;;;;;;5.15;2.75;;;3.20;68.60;;;;;;5099291;28;20031;-73
2021/03/23 01:47:59;;;;;;;3.92;2.88;;;3.20;68.70;;;;;;5099160;28;20315;-73
2021/03/23 01:50:27;;;;;;;6.03;2.88;;;3.20;68.90;;;;;;5099371;28;20028;-73
2021/03/23 01:53:19;;;;;;;5.40;2.67;;;3.10;69.10;;;;;;5099242;28;20404;-73
2021/03/23 01:55:45;;;;;;;5.38;3.05;;;3.00;69.60;;;;;;5099122;28;20032;-73
2021/03/23 01:58:11;;;;;;;6.82;2.75;;;3.00;69.50;;;;;;5098080;28;20093;-73
2021/03/23 02:00:37;;;;;;;8.60;3.22;;;3.00;69.50;;;;;;5098742;28;20116;-73
2021/03/23 02:03:04;;;;;;;4.95;2.95;;;3.00;69.60;;;;;;5098755;28;20016;-73
2021/03/23 02:05:32;;;;;;;6.53;3.20;;;3.00;69.80;;;;;;5098689;28;20051;-73
2021/03/23 02:08:01;;;;;;;4.65;3.00;;;3.00;70.00;;;;;;5098623;28;20025;-73
2021/03/23 02:10:27;;;;;;;4.95;3.03;;;3.10;69.60;;;;;;5098595;28;20024;-73
2021/03/23 02:12:55;;;;;;;3.97;2.45;;;3.20;69.00;;;;;;5098488;28;20024;-73
2021/03/23 02:15:23;;;;;;;5.88;2.80;;;3.20;68.60;;;;;;5098692;28;20020;-73
2021/03/23 02:18:11;;;;;;;5.82;2.67;;;3.20;68.20;;;;;;5098612;28;20028;-73
2021/03/23 02:20:56;;;;;;;8.10;2.60;;;3.10;68.20;;;;;;5098246;28;20081;-73
2021/03/23 02:23:25;;;;;;;5.80;3.30;;;3.10;68.60;;;;;;5098765;28;20051;-73
2021/03/23 02:25:51;;;;;;;4.78;2.35;;;3.30;69.00;;;;;;5098150;28;20123;-73
2021/03/23 02:28:17;;;;;;;5.78;2.67;;;3.40;68.80;;;;;;5098429;28;20387;-73
2021/03/23 02:30:43;;;;;;;7.10;2.80;;;3.40;68.10;;;;;;5098170;28;20066;-73
2021/03/23 02:33:09;;;;;;;5.07;2.85;;;3.40;68.60;;;;;;5098026;28;20027;-73
2021/03/23 02:35:36;;;;;;;5.95;2.90;;;3.30;69.00;;;;;;5098313;28;20020;-73
2021/03/23 02:38:03;;;;;;;4.95;2.20;;;3.20;69.20;;;;;;5098495;28;20024;-73
2021/03/23 02:40:29;;;;;;;3.47;2.30;;;3.10;69.60;;;;;;5097929;28;20020;-73
2021/03/23 02:42:55;;;;;;;5.80;2.85;;;3.10;69.80;;;;;;5097901;28;20070;-73
2021/03/23 02:45:22;;;;;;;3.92;2.20;;;3.00;69.70;;;;;;5098151;28;20024;-73
2021/03/23 02:47:48;;;;;;;8.48;2.45;;;2.90;70.00;;;;;;5097787;28;20023;-73
2021/03/23 02:50:14;;;;;;;7.20;2.45;;;2.90;70.20;;;;;;5097824;28;20070;-73
2021/03/23 02:52:39;;;;;;;5.50;2.75;;;2.80;70.50;;;;;;5098053;28;20024;-73
2021/03/23 02:55:07;;;;;;;4.82;2.55;;;2.70;70.70;;;;;;5079655;28;20031;-73
2021/03/23 02:57:33;;;;;;;4.97;2.70;;;2.60;71.20;;;;;;5097987;28;20062;-73
2021/03/23 02:59:59;;;;;;;5.10;2.42;;;2.60;71.40;;;;;;5097610;28;20332;-73
2021/03/23 03:02:24;;;;;;;6.40;1.90;;;2.70;71.30;;;;;;5097488;28;20370;-73
2021/03/23 03:04:50;;;;;;;9.55;2.40;;;2.70;71.10;;;;;;5079500;28;20024;-73
2021/03/23 03:07:16;;;;;;;4.38;2.45;;;2.70;71.10;;;;;;5097500;28;20414;-73
2021/03/23 03:09:41;;;;;;;4.82;2.25;;;2.70;71.00;;;;;;5097451;28;20503;-73
2021/03/23 03:12:08;;;;;;;5.00;2.50;;;2.60;71.10;;;;;;5097391;28;20042;-73
2021/03/23 03:14:33;;;;;;;5.72;2.53;;;2.60;71.00;;;;;;5097280;28;20366;-73
2021/03/23 03:17:00;;;;;;;4.55;2.42;;;2.60;70.90;;;;;;5097378;28;20024;-73
2021/03/23 03:19:26;;;;;;;4.55;2.08;;;2.60;71.20;;;;;;5097272;28;20020;-73
2021/03/23 03:21:52;;;;;;;4.63;1.85;;;2.60;71.10;;;;;;5097468;28;20031;-73
2021/03/23 03:24:17;;;;;;;4.72;2.03;;;2.60;70.80;;;;;;5097642;28;20067;-73
2021/03/23 03:26:43;;;;;;;5.50;1.80;;;2.60;70.70;;;;;;5097054;28;20056;-73
2021/03/23 03:29:09;;;;;;;4.47;2.22;;;2.50;70.90;;;;;;5097167;28;20431;-73
2021/03/23 03:31:35;;;;;;;4.03;1.90;;;2.50;71.00;;;;;;5079257;28;20331;-73
2021/03/23 03:34:01;;;;;;;2.10;1.48;;;2.40;71.40;;;;;;5079069;28;20028;-73
2021/03/23 03:36:29;;;;;;;5.22;2.08;;;2.40;71.70;;;;;;5097016;28;20028;-73
2021/03/23 03:38:55;;;;;;;4.55;2.20;;;2.40;71.80;;;;;;5097141;28;20436;-73
2021/03/23 03:41:22;;;;;;;5.53;2.05;;;2.40;71.60;;;;;;5096933;28;20028;-73
2021/03/23 03:43:48;;;;;;;7.70;2.42;;;2.40;71.80;;;;;;5096877;28;20023;-73
2021/03/23 03:46:15;;;;;;;5.75;2.25;;;2.50;72.00;;;;;;5097148;28;20031;-73
2021/03/23 03:48:40;;;;;;;5.78;2.47;;;2.50;71.70;;;;;;5097069;28;20016;-73
2021/03/23 03:51:07;;;;;;;3.78;1.83;;;2.40;71.50;;;;;;5097119;28;20031;-73
2021/03/23 03:53:33;;;;;;;3.95;1.95;;;2.40;71.60;;;;;;5097033;28;20034;-73
2021/03/23 03:55:59;;;;;;;3.80;1.70;;;2.30;72.00;;;;;;5097066;28;20032;-73
2021/03/23 03:58:25;;;;;;;5.78;2.65;;;2.40;72.20;;;;;;5097190;28;20024;-73
2021/03/23 04:00:51;;;;;;;6.75;2.30;;;2.40;72.20;;;;;;5096755;28;20427;-73
2021/03/23 04:03:25;;;;;;;2.97;2.17;;;2.40;72.20;;;;;;5096688;28;20024;-73
2021/03/23 04:05:52;;;;;;;7.43;2.10;;;2.40;72.40;;;;;;5097149;28;20406;-73
2021/03/23 04:08:21;;;;;;;3.60;1.80;;;2.30;72.80;;;;;;5096697;28;20112;-73
2021/03/23 04:10:47;;;;;;;2.97;1.75;;;2.20;73.30;;;;;;5096649;28;20289;-70
2021/03/23 04:13:14;;;;;;;3.97;1.65;;;2.10;73.70;;;;;;5078962;28;20293;-70
2021/03/23 04:15:43;;;;;;;5.88;2.03;;;2.10;73.80;;;;;;5078703;28;20103;-70
2021/03/23 04:18:10;;;;;;;5.32;2.25;;;2.10;73.80;;;;;;5096902;28;20032;-72
2021/03/23 04:20:38;;;;;;;4.05;1.92;;;2.10;73.30;;;;;;5096456;28;20032;-70
2021/03/23 04:23:05;;;;;;;4.28;2.05;;;2.10;73.10;;;;;;5100155;28;20073;-70
2021/03/23 04:25:33;;;;;;;5.05;1.67;;;2.10;73.30;;;;;;5100363;28;20140;-70
2021/03/23 04:28:00;;;;;;;6.10;1.98;;;2.10;73.40;;;;;;5082512;28;20099;-70
2021/03/23 04:30:26;;;;;;;5.78;2.17;;;2.10;73.30;;;;;;5100496;28;20024;-72
2021/03/23 04:32:55;;;;;;;5.63;1.90;;;2.10;73.30;;;;;;5100464;28;20430;-73
2021/03/23 04:35:26;;;;;;;4.45;1.73;;;2.00;73.80;;;;;;5100377;28;20327;-73
2021/03/23 04:37:52;;;;;;;4.10;1.95;;;1.90;74.10;;;;;;5100658;28;20024;-73
2021/03/23 04:40:18;;;;;;;3.95;2.20;;;1.90;74.20;;;;;;5100242;28;20319;-73
2021/03/23 04:42:44;;;;;;;6.25;2.28;;;1.90;74.30;;;;;;5100318;28;20028;-73
2021/03/23 04:45:10;;;;;;;4.97;2.40;;;1.90;74.20;;;;;;5082122;28;20020;-73
2021/03/23 04:47:36;;;;;;;5.15;2.38;;;1.90;74.00;;;;;;5100596;28;20016;-73
2021/03/23 04:50:03;;;;;;;7.28;2.30;;;1.90;73.90;;;;;;5100370;28;20301;-73
2021/03/23 04:52:29;;;;;;;4.32;2.28;;;1.90;74.00;;;;;;5099987;28;20078;-73
2021/03/23 04:54:55;;;;;;;4.82;2.10;;;1.90;74.10;;;;;;5100012;28;20134;-73
2021/03/23 04:57:20;;;;;;;5.18;2.40;;;1.80;74.30;;;;;;5082359;28;20031;-73
2021/03/23 04:59:46;;;;;;;5.32;2.40;;;1.80;74.70;;;;;;5082225;28;20028;-73
2021/03/23 05:02:12;;;;;;;4.22;2.05;;;1.80;74.80;;;;;;5099820;28;20115;-73
2021/03/23 05:04:37;;;;;;;6.45;2.20;;;1.70;74.60;;;;;;5099824;28;20077;-73
2021/03/23 05:07:03;;;;;;;5.50;2.03;;;1.70;74.60;;;;;;5099829;28;20024;-73
2021/03/23 05:09:29;;;;;;;4.57;2.65;;;1.70;74.80;;;;;;5099837;28;20016;-73
2021/03/23 05:11:54;;;;;;;4.28;2.40;;;1.60;75.20;;;;;;5099762;28;20028;-73
2021/03/23 05:14:20;;;;;;;3.78;2.25;;;1.60;75.50;;;;;;5099648;28;20020;-73
2021/03/23 05:16:46;;;;;;;6.25;2.45;;;1.60;75.90;;;;;;5099601;28;20438;-73
2021/03/23 05:19:12;;;;;;;5.43;2.50;;;1.60;76.30;;;;;;5099614;28;20020;-73
2021/03/23 05:21:37;;;;;;;5.63;2.42;;;1.60;76.00;;;;;;5099468;28;20101;-73
2021/03/23 05:24:03;;;;;;;2.65;1.83;;;1.70;75.90;;;;;;5099871;28;20376;-73
2021/03/23 05:26:30;;;;;;;5.43;2.47;;;1.70;76.30;;;;;;5081373;28;20093;-73
2021/03/23 05:28:56;;;;;;;7.30;2.65;;;1.80;76.10;;;;;;5099699;28;20419;-73
2021/03/23 05:31:22;;;;;;;6.32;2.15;;;1.70;75.90;;;;;;5099348;28;20062;-73
2021/03/23 05:33:52;;;;;;;5.65;1.88;;;1.80;75.90;;;;;;5098193;28;20066;-72
2021/03/23 05:36:18;;;;;;;5.57;1.85;;;1.80;75.80;;;;;;5099532;28;20036;-73
2021/03/23 05:38:44;;;;;;;5.85;2.45;;;1.80;75.60;;;;;;5099492;28;20027;-73
2021/03/23 05:41:18;;;;;;;4.13;1.65;;;1.80;75.80;;;;;;5099103;28;20028;-73
2021/03/23 05:44:14;;;;;;;6.05;2.17;;;1.90;75.90;;;;;;5099285;28;20020;-73
2021/03/23 05:46:40;;;;;;;4.75;2.53;;;2.00;76.20;;;;;;5099419;28;20050;-73
2021/03/23 05:49:28;;;;;;;6.78;2.50;;;2.10;76.60;;;;;;5099030;28;20412;-73
2021/03/23 05:52:06;;;;;;;6.75;2.20;;;2.20;76.60;;;;;;5099223;28;20028;-73
2021/03/23 05:54:40;;;;;;;5.35;2.60;;;2.30;76.40;;;;;;5098932;28;20038;-73
2021/03/23 05:57:24;;;;;;;5.03;2.40;;;2.40;76.60;;;;;;5099129;28;20027;-73
2021/03/23 05:59:57;;;;;;;7.18;2.65;;;2.60;76.50;;;;;;5098893;28;20358;-73
2021/03/23 06:02:36;;;;;;;7.60;2.58;;;2.70;76.70;;;;;;5099003;28;20024;-73
2021/03/23 06:05:29;;;;;;;7.70;2.55;;;2.90;74.00;;;;;;5099213;28;20119;-73
2021/03/23 06:08:00;;;;;;;4.85;2.72;;;3.10;73.60;;;;;;5099170;28;20438;-73
2021/03/23 06:10:26;;;;;;;4.15;2.53;;;3.30;73.90;;;;;;5099218;28;20340;-73
2021/03/23 06:13:04;;;;;;;5.20;2.80;;;3.40;72.70;;;;;;5098458;28;20069;-73
2021/03/23 06:15:39;;;;;;;4.40;2.42;;;3.50;72.30;;;;;;5098500;28;20099;-73
2021/03/23 06:18:18;;;;;;;4.32;2.40;;;3.60;71.70;;;;;;5098781;28;20028;-73
2021/03/23 06:21:23;;;;;;;6.95;2.80;;;3.80;71.20;;;;;;5098545;28;20032;-73
2021/03/23 06:24:06;;;;;;;7.20;2.70;;;3.90;71.90;;;;;;5098257;28;20047;-73
2021/03/23 06:27:10;;;;;;;6.15;2.95;;;4.00;70.90;;;;;;5098180;28;20086;-73
2021/03/23 06:29:57;;;;;;;4.90;2.70;;;4.10;69.10;;;;;;5098234;28;20024;-73
2021/03/23 06:32:37;;;;;;;6.20;2.97;;;4.10;69.30;;;;;;5098464;28;20020;-73
2021/03/23 06:35:05;;;;;;;7.07;2.58;;;4.10;70.10;;;;;;5098140;28;20055;-73
2021/03/23 06:37:36;;;;;;;6.15;2.35;;;4.20;70.80;;;;;;5080130;28;20024;-73
2021/03/23 06:40:14;;;;;;;5.15;2.90;;;4.30;69.90;;;;;;5098027;28;20080;-73
2021/03/23 06:42:46;;;;;;;6.15;2.67;;;4.40;69.00;;;;;;5098055;28;20027;-73
2021/03/23 06:45:33;;;;;;;5.28;2.38;;;4.40;70.00;;;;;;5097655;28;20442;-73
2021/03/23 06:48:23;;;;;;;5.07;2.65;;;4.50;70.40;;;;;;5097871;28;20339;-73
2021/03/23 06:50:51;;;;;;;5.43;2.40;;;4.60;69.50;;;;;;5098090;28;20308;-72
2021/03/23 06:53:21;;;;;;;3.80;2.38;;;4.80;68.70;;;;;;5097925;28;20028;-72
2021/03/23 06:55:49;;;;;;;7.63;2.90;;;4.90;68.80;;;;;;5098047;28;20085;-73
2021/03/23 06:58:23;;;;;;;5.07;2.92;;;4.90;69.00;;;;;;5097734;28;20311;-72
2021/03/23 07:01:17;;;;;;;7.25;2.90;;;4.90;68.60;;;;;;5097560;28;20119;-72
2021/03/23 07:03:45;;;;;;;9.27;3.28;;;5.00;67.50;;;;;;5097658;28;20022;-71
2021/03/23 07:06:29;;;;;;;9.70;3.10;;;5.10;68.40;;;;;;5097570;28;20035;-71
2021/03/23 07:09:20;;;;;;;6.20;2.70;;;5.10;69.80;;;;;;5097627;28;20058;-71
2021/03/23 07:11:52;;;;;;;4.72;2.58;;;5.30;70.30;;;;;;5097456;28;20032;-72
2021/03/23 07:14:25;;;;;;;7.93;2.60;;;5.40;67.90;;;;;;5097443;28;20069;-71
2021/03/23 07:16:50;;;;;;;6.80;3.05;;;5.60;67.60;;;;;;5097413;28;20052;-72
2021/03/23 07:19:16;;;;;;;5.85;2.60;;;5.60;66.90;;;;;;5097363;28;20316;-72
2021/03/23 07:21:57;;;;;;;5.85;3.15;;;5.70;67.90;;;;;;5097177;28;20028;-72
2021/03/23 07:24:29;;;;;;;5.22;2.97;;;5.90;66.10;;;;;;5097553;28;20024;-74
2021/03/23 07:27:04;;;;;;;8.88;2.75;;;5.90;66.00;;;;;;5097212;28;20331;-73
2021/03/23 07:29:38;;;;;;;8.75;2.83;;;6.00;65.50;;;;;;5097244;28;20017;-73
2021/03/23 07:32:37;;;;;;;5.43;2.67;;;6.20;66.00;;;;;;5097771;28;20028;-73
2021/03/23 07:35:27;;;;;;;4.60;2.15;;;6.60;64.20;;;;;;5097123;28;20362;-73
2021/03/23 07:38:17;;;;;;;4.93;2.28;;;6.90;62.80;;;;;;5097264;28;20115;-73
2021/03/23 07:40:46;;;;;;;4.45;2.40;;;7.00;61.70;;;;;;5097283;28;20066;-73
2021/03/23 07:43:39;;;;;;;4.50;2.33;;;7.00;61.90;;;;;;5079010;28;20030;-73
2021/03/23 07:46:42;;;;;;;6.38;2.92;;;6.80;63.00;;;;;;5097076;28;20320;-73
2021/03/23 07:49:34;;;;;;;5.05;2.63;;;6.60;63.00;;;;;;5041504;28;20054;-73
2021/03/23 07:52:31;;;;;;;3.80;2.42;;;6.40;63.50;;;;;;5096885;28;20027;-73
2021/03/23 07:54:58;;;;;;;;;;;6.40;64.90;;;;;;5097199;28;20032;-73
2021/03/23 07:58:03;;;;;;;5.00;2.53;;;6.40;63.90;;;;;;5096336;28;19904;-73
2021/03/23 08:00:50;;;;;;;6.00;2.60;;;6.30;63.40;;;;;;5096992;28;20420;-73
2021/03/23 08:03:18;;;;;;;;;;;6.40;63.10;;;;;;5097129;28;20024;-73
2021/03/23 08:06:01;;;;;;;5.25;2.88;;;6.60;63.10;;;;;;5096732;28;20006;-73
2021/03/23 08:08:42;;;;;;;9.02;2.50;;;6.80;63.60;;;;;;5097051;28;20073;-73
2021/03/23 08:11:14;;;;;;;5.85;2.60;;;7.10;61.50;;;;;;5096740;28;20024;-74
2021/03/23 08:14:04;;;;;;;9.13;2.92;;;7.40;59.80;;;;;;5078700;28;20055;-73
2021/03/23 08:16:45;;;;;;;6.28;3.22;;;8.20;59.60;;;;;;5096701;28;20039;-73
2021/03/23 08:19:33;;;;;;;4.70;2.30;;;9.20;57.20;;;;;;5096673;28;20036;-71
2021/03/23 08:22:40;;;;;;;4.03;2.40;;;10.50;52.80;;;;;;5096583;28;20024;-71
2021/03/23 08:25:23;;;;;;;5.10;2.47;;;11.70;50.30;;;;;;5096392;28;20051;-71
2021/03/23 08:28:11;;;;;;;5.60;2.72;;;12.80;48.90;;;;;;5096809;28;20032;-71
2021/03/23 08:30:43;;;;;;;6.43;2.47;;;13.20;46.00;;;;;;5096693;28;20016;-71
2021/03/23 08:33:23;;;;;;;6.13;2.78;;;13.90;46.10;;;;;;5096659;28;20020;-71
2021/03/23 08:36:09;;;;;;;4.80;2.45;;;14.40;44.20;;;;;;5096939;28;20089;-71
2021/03/23 08:38:40;;;;;;;5.25;3.47;;;14.50;43.60;;;;;;5078707;28;20412;-71
2021/03/23 08:41:35;;;;;;;4.15;2.15;;;14.80;44.80;;;;;;5096679;28;20123;-71
2021/03/23 08:44:01;;;;;;;5.13;2.22;;;15.10;43.10;;;;;;5074449;28;20048;-71
2021/03/23 08:46:34;;;;;;;5.18;2.40;;;15.40;41.30;;;;;;5096429;28;20016;-71
2021/03/23 08:49:07;;;;;;;4.88;2.45;;;15.80;42.20;;;;;;5078469;28;20020;-71
2021/03/23 08:51:40;;;;;;;5.78;2.47;;;15.50;43.20;;;;;;5096528;28;20020;-71
2021/03/23 08:54:07;;;;;;;8.57;2.83;;;15.50;41.90;;;;;;5096729;28;20032;-71
2021/03/23 08:56:41;;;;;;;4.55;2.42;;;15.20;42.30;;;;;;5096201;28;20447;-71
2021/03/23 08:59:35;;;;;;;4.53;2.85;;;15.10;43.60;;;;;;5096439;28;20108;-71
2021/03/23 09:02:21;;;;;;;9.32;3.05;;;15.10;43.20;;;;;;5096444;28;20316;-71
2021/03/23 09:04:50;;;;;;;7.95;3.08;;;15.40;43.10;;;;;;5079224;28;20089;-71
2021/03/23 09:07:16;;;;;;;5.80;2.92;;;15.60;42.90;;;;;;5096841;28;20082;-71
2021/03/23 09:09:44;;;;;;;6.07;2.88;;;15.80;42.90;;;;;;5099813;28;20320;-71
2021/03/23 09:12:34;;;;;;;5.88;2.67;;;15.90;42.20;;;;;;5099871;28;20020;-71
2021/03/23 09:15:15;;;;;;;5.78;2.65;;;15.90;43.40;;;;;;5081697;28;20066;-71
2021/03/23 09:18:25;;;;;;;6.00;2.90;;;15.70;43.20;;;;;;5100138;28;20028;-72
2021/03/23 09:20:51;;;;;;;4.93;2.95;;;15.70;43.90;;;;;;5099784;28;20028;-71
2021/03/23 09:23:24;;;;;;;5.22;2.53;;;15.40;44.00;;;;;;5099398;28;20050;-72
2021/03/23 09:25:55;;;;;;;5.50;2.72;;;15.60;43.90;;;;;;5099527;28;20048;-71
2021/03/23 09:28:31;;;;;;;3.30;2.55;;;15.90;41.00;;;;;;5081545;28;20020;-71
2021/03/23 09:30:56;;;;;;;6.68;2.60;;;15.80;41.80;;;;;;5099414;28;20028;-71
2021/03/23 09:33:22;;;;;;;6.15;2.80;;;15.90;40.10;;;;;;5081321;28;20035;-71
2021/03/23 09:38:38;;;;;;;5.28;3.17;;;16.70;40.80;;;;;;5099903;28;20027;-71
2021/03/23 09:41:07;;;;;;;3.95;2.58;;;16.50;41.30;;;;;;5099051;28;20063;-71
2021/03/23 09:43:36;;;;;;;6.45;3.55;;;16.40;42.20;;;;;;5099029;28;20020;-71
2021/03/23 09:46:13;;;;;;;8.20;2.95;;;16.40;41.10;;;;;;5099276;28;20316;-73
2021/03/23 09:49:10;;;;;;;4.32;3.10;;;16.20;41.10;;;;;;5099063;28;20468;-71
2021/03/23 09:51:55;;;;;;;5.90;3.05;;;16.20;43.30;;;;;;5099009;28;20095;-73
2021/03/23 09:54:34;;;;;;;5.25;2.97;;;16.30;40.80;;;;;;5099438;28;20028;-71
2021/03/23 09:57:21;;;;;;;6.40;3.30;;;16.00;42.60;;;;;;5099119;28;20077;-72
2021/03/23 09:59:58;;;;;;;3.85;2.92;;;15.30;42.50;;;;;;5098339;28;20427;-72
2021/03/23 10:02:32;;;;;;;4.88;3.30;;;14.90;44.70;;;;;;5099293;28;20028;-73
2021/03/23 10:05:20;;;;;;;7.05;3.25;;;14.60;44.80;;;;;;5098849;28;20098;-73
2021/03/23 10:07:47;;;;;;;5.20;3.53;;;14.10;45.50;;;;;;5080800;28;20028;-71
2021/03/23 10:10:32;;;;;;;5.18;3.60;;;14.00;47.10;;;;;;5098892;28;20085;-71
2021/03/23 10:13:20;;;;;;;9.55;3.83;;;13.80;46.10;;;;;;5093862;28;20104;-71
2021/03/23 10:15:45;;;;;;;6.10;3.55;;;13.80;48.20;;;;;;5089603;28;20024;-71
2021/03/23 10:18:18;;;;;;;5.65;3.65;;;13.60;47.60;;;;;;5098488;28;20028;-71
2021/03/23 10:21:00;;;;;;;6.90;4.07;;;13.30;45.90;;;;;;5097693;28;20052;-71
2021/03/23 10:23:27;;;;;;;6.20;3.28;;;12.90;46.50;;;;;;5098725;28;20035;-73
2021/03/23 10:25:54;;;;;;;28.83;3.78;;;12.50;47.40;;;;;;5098181;28;20401;-73
2021/03/23 10:28:25;;;;;;;8.60;4.25;;;13.50;48.60;;;;;;5098214;28;20423;-73
2021/03/23 10:31:07;;;;;;;6.13;3.67;;;14.00;46.90;;;;;;5080252;28;20043;-72
2021/03/23 10:33:37;;;;;;;11.00;4.18;;;14.40;46.30;;;;;;5098357;28;20109;-73
2021/03/23 10:36:06;;;;;;;7.82;3.28;;;14.60;45.70;;;;;;5098455;28;20052;-72
2021/03/23 10:38:32;;;;;;;5.07;3.17;;;14.30;43.90;;;;;;5098298;28;20043;-71
2021/03/23 10:41:20;;;;;;;6.20;4.00;;;14.70;45.00;;;;;;5097956;28;20032;-73
2021/03/23 10:43:48;;;;;;;5.72;3.75;;;15.10;44.10;;;;;;5097682;28;20036;-72
2021/03/23 10:46:44;;;;;;;7.20;3.55;;;14.80;44.00;;;;;;5097962;28;20020;-71
2021/03/23 10:49:24;;;;;;;5.22;3.42;;;14.10;44.90;;;;;;5097837;28;20035;-72
2021/03/23 10:51:55;;;;;;;5.05;3.78;;;13.70;46.10;;;;;;5098085;28;20032;-71
2021/03/23 10:54:23;;;;;;;5.70;3.80;;;13.40;47.50;;;;;;5097657;28;20024;-71
2021/03/23 10:56:53;;;;;;;5.20;3.35;;;13.20;47.50;;;;;;5097763;28;20043;-71
2021/03/23 10:59:22;;;;;;;5.78;3.42;;;13.30;47.60;;;;;;5097915;28;20078;-71
2021/03/23 11:01:57;;;;;;;8.95;3.83;;;13.90;45.70;;;;;;5079640;28;20035;-73
2021/03/23 11:04:23;;;;;;;6.18;3.83;;;14.40;44.30;;;;;;5097788;28;20115;-71
2021/03/23 11:06:49;;;;;;;5.97;3.20;;;15.00;44.80;;;;;;5097538;28;20114;-71
2021/03/23 11:09:17;;;;;;;7.18;3.55;;;15.30;42.70;;;;;;5097614;28;20024;-71
2021/03/23 11:11:49;;;;;;;7.10;3.88;;;15.40;42.90;;;;;;5097728;28;20052;-72
2021/03/23 11:14:16;;;;;;;7.43;4.22;;;15.60;44.80;;;;;;5097486;28;20028;-71
2021/03/23 11:16:44;;;;;;;7.55;3.72;;;15.80;42.40;;;;;;5097425;28;20024;-71
2021/03/23 11:19:21;;;;;;;6.85;3.80;;;15.80;41.90;;;;;;5097633;28;20046;-71
2021/03/23 11:21:47;;;;;;;8.68;4.43;;;16.00;43.00;;;;;;5097517;28;20020;-72
2021/03/23 11:24:13;;;;;;;5.50;3.15;;;15.80;44.00;;;;;;5097689;28;20020;-72
2021/03/23 11:26:43;;;;;;;5.78;3.30;;;15.40;43.90;;;;;;5097062;28;20051;-71
2021/03/23 11:29:10;;;;;;;6.80;3.88;;;15.00;43.60;;;;;;5097318;28;20324;-71
2021/03/23 11:31:37;;;;;;;5.60;3.85;;;14.10;43.60;;;;;;5096297;28;20020;-72
2021/03/23 11:34:04;;;;;;;7.07;3.80;;;13.90;44.00;;;;;;5079180;28;20054;-71
2021/03/23 11:36:31;;;;;;;8.32;4.40;;;13.60;46.70;;;;;;5097270;28;20045;-71
2021/03/23 11:38:57;;;;;;;6.30;3.75;;;13.40;47.00;;;;;;5079168;28;20025;-71
2021/03/23 11:41:35;;;;;;;6.88;3.70;;;13.40;46.20;;;;;;5097209;28;20028;-72
2021/03/23 11:44:05;;;;;;;7.07;4.18;;;13.60;48.10;;;;;;5079095;28;20024;-71
2021/03/23 11:46:49;;;;;;;6.90;3.83;;;13.70;47.10;;;;;;5097006;28;20020;-71
2021/03/23 11:49:29;;;;;;;8.65;5.00;;;13.70;47.10;;;;;;5096849;28;20024;-72
2021/03/23 11:51:55;;;;;;;7.65;4.40;;;13.70;46.30;;;;;;5097050;28;20020;-71
2021/03/23 11:54:21;;;;;;;7.72;4.13;;;13.30;46.80;;;;;;5097284;28;20172;-71
2021/03/23 11:56:47;;;;;;;9.23;4.28;;;13.00;48.80;;;;;;5078928;28;20054;-71
2021/03/23 11:59:13;;;;;;;7.45;4.00;;;13.00;48.80;;;;;;5096968;28;20027;-71
2021/03/23 12:01:39;;;;;;;7.30;3.88;;;13.00;48.60;;;;;;5096707;28;20016;-72
2021/03/23 12:04:05;;;;;;;8.57;4.82;;;13.20;48.90;;;;;;5096925;28;20422;-71
2021/03/23 12:06:36;;;;;;;8.82;4.30;;;13.50;48.20;;;;;;5096676;28;20016;-71
2021/03/23 12:09:08;;;;;;;7.20;4.40;;;13.50;47.90;;;;;;5096734;28;20031;-71
2021/03/23 12:12:08;;;;;;;7.00;3.70;;;13.60;47.60;;;;;;5097033;28;20070;-71
2021/03/23 12:14:45;;;;;;;5.78;3.60;;;13.40;48.30;;;;;;5055912;28;20043;-72
2021/03/23 12:17:16;;;;;;;7.93;3.80;;;13.40;48.60;;;;;;5096721;28;20024;-71
2021/03/23 12:19:50;;;;;;;5.93;3.70;;;13.60;46.90;;;;;;5096925;28;20315;-71
2021/03/23 12:22:18;;;;;;;9.10;3.60;;;13.70;44.10;;;;;;5078596;28;20020;-71
2021/03/23 12:24:45;;;;;;;5.10;3.25;;;13.80;46.40;;;;;;5078428;28;20397;-72
2021/03/23 12:27:14;;;;;;;7.90;3.47;;;14.10;46.40;;;;;;5078703;28;20032;-71
2021/03/23 12:29:40;;;;;;;7.03;3.38;;;13.90;44.40;;;;;;5096623;28;20350;-73
2021/03/23 12:32:11;;;;;;;9.70;3.75;;;13.20;46.10;;;;;;5096576;28;20020;-72
2021/03/23 12:34:37;;;;;;;5.20;3.55;;;12.90;47.10;;;;;;5096481;28;20024;-72
2021/03/23 12:37:04;;;;;;;6.22;3.53;;;12.90;49.20;;;;;;5096491;28;20020;-72
2021/03/23 12:39:29;;;;;;;8.20;3.58;;;12.90;48.10;;;;;;5096550;28;20035;-71
2021/03/23 12:41:55;;;;;;;8.95;3.45;;;13.00;47.50;;;;;;5096369;28;20020;-72
2021/03/23 12:44:21;;;;;;;8.00;3.47;;;13.20;48.30;;;;;;5100220;28;20024;-71
2021/03/23 12:46:48;;;;;;;8.10;4.00;;;13.10;47.90;;;;;;5100291;28;20020;-71
2021/03/23 12:49:14;;;;;;;8.48;3.92;;;12.90;44.90;;;;;;5100419;28;20043;-73
2021/03/23 12:51:50;;;;;;;10.15;3.63;;;12.40;46.90;;;;;;5100193;28;20028;-73
2021/03/23 12:54:37;;;;;;;7.03;3.50;;;12.10;47.20;;;;;;5082260;28;20036;-72
2021/03/23 12:57:16;;;;;;;6.28;4.55;;;12.00;48.30;;;;;;5100121;28;20030;-73
2021/03/23 12:59:41;;;;;;;8.73;6.28;;;11.80;50.40;;;;;;5100050;28;20024;-73
2021/03/23 13:02:07;;;;;;;7.90;4.18;;;11.80;49.20;;;;;;5100200;28;20024;-72
2021/03/23 13:04:33;;;;;;;7.18;3.97;;;11.70;49.60;;;;;;5099863;28;20051;-73
2021/03/23 13:06:59;;;;;;;7.03;4.05;;;11.80;49.80;;;;;;5099879;28;20017;-73
2021/03/23 13:09:26;;;;;;;5.93;3.72;;;11.80;50.20;;;;;;5099854;28;20035;-73
2021/03/23 13:11:53;;;;;;;6.95;3.72;;;12.10;51.70;;;;;;5099958;28;20021;-73
2021/03/23 13:14:26;;;;;;;7.50;4.25;;;12.40;47.70;;;;;;5099707;28;20078;-73
2021/03/23 13:16:53;;;;;;;7.93;3.67;;;12.50;49.60;;;;;;5099769;28;20017;-73
2021/03/23 13:19:20;;;;;;;9.30;3.97;;;12.60;47.40;;;;;;5099664;28;20477;-73